Time;durP1;ratioP1;P1;durP2;ratioP2;P2;SDS_P1;SDS_P2;PMS_P1;PMS_P2;Temp;Humidity;BMP_temperature;BMP_pressure;BME280_temperature;BME280_humidity;BME280_pressure;Samples;Min_cycle;Max_cycle;Signal;HPM_P1;HPM_P2
2023/11/02 00:00:35;;;;;;;;;;;14.20;99.90;;;;;;5039072;28;20377;-86
2023/11/02 00:03:02;;;;;;;;;;;14.20;99.90;;;;;;5013135;28;19921;-86
2023/11/02 00:05:40;;;;;;;;;;;14.20;99.90;;;;;;5013525;28;19905;-86
2023/11/02 00:08:08;;;;;;;;;;;14.20;99.90;;;;;;5037528;28;19905;-86
2023/11/02 00:10:33;;;;;;;;;;;14.20;99.90;;;;;;5029485;28;19905;-85
2023/11/02 00:12:59;;;;;;;;;;;14.20;99.90;;;;;;5016404;28;19959;-84
2023/11/02 00:15:26;;;;;;;;;;;14.20;99.90;;;;;;5034119;28;19924;-87
2023/11/02 00:17:54;;;;;;;;;;;14.20;99.90;;;;;;5017641;28;19913;-87
2023/11/02 00:20:28;;;;;;;;;;;14.30;99.90;;;;;;5044578;28;19909;-87
2023/11/02 00:22:54;;;;;;;;;;;14.30;99.90;;;;;;5038183;28;20351;-87
2023/11/02 00:25:39;;;;;;;;;;;14.30;99.90;;;;;;5036737;28;19912;-87
2023/11/02 00:28:08;;;;;;;;;;;14.30;99.90;;;;;;5010469;28;19956;-86
2023/11/02 00:30:37;;;;;;;;;;;14.30;99.90;;;;;;5004298;28;19905;-87
2023/11/02 00:33:03;;;;;;;;;;;14.30;99.90;;;;;;5028912;28;20354;-86
2023/11/02 00:35:29;;;;;;;;;;;14.30;99.90;;;;;;5055476;28;19911;-88
2023/11/02 00:37:54;;;;;;;;;;;14.30;99.90;;;;;;5030048;28;20374;-87
2023/11/02 00:40:20;;;;;;;;;;;14.40;99.90;;;;;;5023755;28;19912;-87
2023/11/02 00:42:48;;;;;;;;;;;14.40;99.90;;;;;;5034376;28;19923;-87
2023/11/02 00:45:14;;;;;;;;;;;14.40;99.90;;;;;;5017376;28;19932;-88
2023/11/02 00:47:41;;;;;;;;;;;14.40;99.90;;;;;;5023403;28;19949;-87
2023/11/02 00:50:26;;;;;;;;;;;14.40;99.90;;;;;;5054808;28;20002;-87
2023/11/02 00:52:52;;;;;;;;;;;14.40;99.90;;;;;;5033160;28;20403;-86
2023/11/02 00:55:31;;;;;;;;;;;14.40;99.90;;;;;;5020809;28;19894;-86
2023/11/02 00:57:58;;;;;;;;;;;14.40;99.90;;;;;;5020202;28;19959;-88
2023/11/02 01:00:42;;;;;;;;;;;14.40;99.90;;;;;;5020211;28;19913;-87
2023/11/02 01:03:08;;;;;;;;;;;14.30;99.90;;;;;;5014958;28;19914;-87
2023/11/02 01:05:34;;;;;;;;;;;14.30;99.90;;;;;;5003840;28;19912;-88
2023/11/02 01:08:00;;;;;;;;;;;14.30;99.90;;;;;;5035006;28;19945;-88
2023/11/02 01:10:26;;;;;;;;;;;14.30;99.90;;;;;;5015255;28;20008;-89
2023/11/02 01:12:51;;;;;;;;;;;14.30;99.90;;;;;;5033130;28;20371;-89
2023/11/02 01:15:36;;;;;;;;;;;14.30;99.90;;;;;;5016732;28;19928;-90
2023/11/02 01:18:02;;;;;;;;;;;14.30;99.90;;;;;;5054492;28;20384;-89
2023/11/02 01:20:38;;;;;;;;;;;14.40;99.90;;;;;;5036878;28;19940;-87
2023/11/02 01:23:06;;;;;;;;;;;14.40;99.90;;;;;;5027100;28;19993;-87
2023/11/02 01:25:35;;;;;;;;;;;14.40;99.90;;;;;;5021645;28;19936;-88
2023/11/02 01:28:02;;;;;;;;;;;14.30;99.90;;;;;;5019588;28;19951;-87
2023/11/02 01:30:37;;;;;;;;;;;14.40;99.90;;;;;;5052985;28;19909;-89
2023/11/02 01:33:22;;;;;;;;;;;14.30;99.90;;;;;;5035005;28;19912;-88
2023/11/02 01:35:47;;;;;;;;;;;14.10;99.90;;;;;;5038085;28;19909;-88
2023/11/02 01:38:14;;;;;;;;;;;14.00;99.90;;;;;;5037053;28;20319;-88
2023/11/02 01:40:45;;;;;;;;;;;13.90;99.90;;;;;;5007068;28;19905;-87
2023/11/02 01:43:15;;;;;;;;;;;13.90;99.90;;;;;;5023294;28;20051;-87
2023/11/02 01:45:41;;;;;;;;;;;13.90;99.90;;;;;;5033730;28;19917;-87
2023/11/02 01:48:17;;;;;;;;;;;13.90;99.90;;;;;;5040833;28;19917;-87
2023/11/02 01:50:42;;;;;;;;;;;13.90;99.90;;;;;;5035884;28;19905;-88
2023/11/02 01:53:15;;;;;;;;;;;13.90;99.90;;;;;;5040984;28;19911;-88
2023/11/02 01:55:53;;;;;;;;;;;14.00;99.90;;;;;;5054240;28;20386;-88
2023/11/02 01:58:19;;;;;;;;;;;13.90;99.90;;;;;;5021603;28;19908;-84
2023/11/02 02:00:49;;;;;;;;;;;13.80;99.90;;;;;;5033327;28;20036;-85
2023/11/02 02:03:33;;;;;;;;;;;13.70;99.90;;;;;;5015742;28;19913;-84
2023/11/02 02:06:04;;;;;;;;;;;13.60;99.90;;;;;;5039081;28;19913;-86
2023/11/02 02:08:36;;;;;;;;;;;13.60;99.90;;;;;;5012617;28;19913;-87
2023/11/02 02:11:04;;;;;;;;;;;13.50;99.90;;;;;;5009069;28;19909;-86
2023/11/02 02:13:30;;;;;;;;;;;13.40;99.90;;;;;;5021582;28;20302;-87
2023/11/02 02:16:01;;;;;;;;;;;13.40;99.90;;;;;;5019897;28;19932;-86
2023/11/02 02:18:26;;;;;;;;;;;13.40;99.90;;;;;;5053647;28;19913;-86
2023/11/02 02:20:53;;;;;;;;;;;13.30;99.90;;;;;;5051498;28;20428;-85
2023/11/02 02:23:19;;;;;;;;;;;13.30;99.90;;;;;;5052531;28;19919;-87
2023/11/02 02:26:04;;;;;;;;;;;13.20;99.90;;;;;;5043519;28;19898;-85
2023/11/02 02:28:36;;;;;;;;;;;13.20;99.90;;;;;;5016532;28;19997;-86
2023/11/02 02:31:05;;;;;;;;;;;13.10;99.90;;;;;;5023684;28;20396;-86
2023/11/02 02:33:49;;;;;;;;;;;13.10;99.90;;;;;;5036757;28;19912;-87
2023/11/02 02:36:21;;;;;;;;;;;13.00;99.90;;;;;;5024597;28;19928;-89
2023/11/02 02:38:49;;;;;;;;;;;12.90;99.90;;;;;;5037603;28;19912;-86
2023/11/02 02:41:19;;;;;;;;;;;12.90;99.90;;;;;;5031576;28;19909;-87
2023/11/02 02:43:46;;;;;;;;;;;12.80;99.90;;;;;;5050255;28;20285;-86
2023/11/02 02:46:13;;;;;;;;;;;12.80;99.90;;;;;;5023202;28;19924;-84
2023/11/02 02:48:40;;;;;;;;;;;12.80;99.90;;;;;;5036701;28;19952;-87
2023/11/02 02:51:08;;;;;;;;;;;12.80;99.90;;;;;;5050548;28;19905;-85
2023/11/02 02:53:36;;;;;;;;;;;12.80;99.90;;;;;;5018727;28;19909;-86
2023/11/02 02:56:06;;;;;;;;;;;12.60;99.90;;;;;;5033620;28;20286;-88
2023/11/02 02:59:04;;;;;;;;;;;12.40;99.90;;;;;;5033041;28;19927;-85
2023/11/02 03:01:35;;;;;;;;;;;12.20;99.90;;;;;;4983318;28;19908;-86
2023/11/02 03:04:01;;;;;;;;;;;12.00;99.90;;;;;;5017721;28;19909;-86
2023/11/02 03:06:28;;;;;;;;;;;11.90;99.90;;;;;;5018196;28;19991;-86
2023/11/02 03:08:55;;;;;;;;;;;11.90;99.90;;;;;;5006111;28;19905;-85
2023/11/02 03:11:22;;;;;;;;;;;11.80;99.90;;;;;;5043249;28;19917;-86
2023/11/02 03:13:48;;;;;;;;;;;11.70;99.90;;;;;;5030594;28;20278;-86
2023/11/02 03:16:16;;;;;;;;;;;11.70;99.90;;;;;;5024760;28;19896;-85
2023/11/02 03:18:41;;;;;;;;;;;11.60;99.90;;;;;;5060196;28;19905;-86
2023/11/02 03:21:07;;;;;;;;;;;11.50;99.90;;;;;;5059069;28;19972;-86
2023/11/02 03:23:32;;;;;;;;;;;11.50;99.90;;;;;;5055994;28;19909;-85
2023/11/02 03:26:05;;;;;;;;;;;11.50;99.90;;;;;;5038007;28;19905;-85
2023/11/02 03:28:30;;;;;;;;;;;11.40;99.90;;;;;;5019078;28;19905;-85
2023/11/02 03:31:15;;;;;;;;;;;11.40;99.90;;;;;;5037000;28;19913;-88
2023/11/02 03:33:51;;;;;;;;;;;11.30;99.90;;;;;;5037048;28;19999;-87
2023/11/02 03:36:16;;;;;;;;;;;11.20;99.90;;;;;;5036464;28;19959;-87
2023/11/02 03:38:42;;;;;;;;;;;11.10;99.90;;;;;;5018235;28;19905;-86
2023/11/02 03:41:10;;;;;;;;;;;11.00;99.90;;;;;;5035432;28;19909;-87
2023/11/02 03:43:45;;;;;;;;;;;11.00;99.90;;;;;;5035459;28;19909;-87
2023/11/02 03:46:28;;;;;;;;;;;10.90;99.90;;;;;;5005859;28;19997;-87
2023/11/02 03:49:10;;;;;;;;;;;10.80;99.90;;;;;;5037026;28;20047;-87
2023/11/02 03:51:44;;;;;;;;;;;10.70;99.90;;;;;;5030778;28;19932;-85
2023/11/02 03:54:28;;;;;;;;;;;10.70;99.90;;;;;;5039967;28;20385;-84
2023/11/02 03:57:00;;;;;;;;;;;10.70;99.90;;;;;;5018252;28;19940;-86
2023/11/02 03:59:38;;;;;;;;;;;10.70;99.90;;;;;;5047742;28;19897;-87
2023/11/02 04:02:10;;;;;;;;;;;10.60;99.90;;;;;;5035487;28;19925;-85
2023/11/02 04:04:40;;;;;;;;;;;10.60;99.90;;;;;;5031963;28;19916;-86
2023/11/02 04:07:11;;;;;;;;;;;10.60;99.90;;;;;;5020923;28;20340;-86
2023/11/02 04:09:48;;;;;;;;;;;10.60;99.90;;;;;;4999430;28;20367;-86
2023/11/02 04:12:23;;;;;;;;;;;10.60;99.90;;;;;;5003064;28;19905;-87
2023/11/02 04:14:51;;;;;;;;;;;10.60;99.90;;;;;;5035241;28;20010;-85
2023/11/02 04:17:18;;;;;;;;;;;10.50;99.90;;;;;;5036035;28;19913;-87
2023/11/02 04:19:44;;;;;;;;;;;10.50;99.90;;;;;;5013503;28;19909;-86
2023/11/02 04:22:09;;;;;;;;;;;10.40;99.90;;;;;;5048637;28;19924;-86
2023/11/02 04:24:35;;;;;;;;;;;10.40;99.90;;;;;;5023018;28;19932;-87
2023/11/02 04:27:01;;;;;;;;;;;10.40;99.90;;;;;;5035040;28;19951;-87
2023/11/02 04:29:26;;;;;;;;;;;10.40;99.90;;;;;;5035263;28;19917;-85
2023/11/02 04:31:52;;;;;;;;;;;10.40;99.90;;;;;;5035292;28;19905;-86
2023/11/02 04:34:18;;;;;;;;;;;10.40;99.90;;;;;;5018879;28;19905;-87
2023/11/02 04:36:43;;;;;;;;;;;10.40;99.90;;;;;;5014098;28;19915;-87
2023/11/02 04:39:09;;;;;;;;;;;10.30;99.90;;;;;;5037707;28;20370;-86
2023/11/02 04:41:35;;;;;;;;;;;10.30;99.90;;;;;;5037437;28;19923;-85
2023/11/02 04:44:00;;;;;;;;;;;10.30;99.90;;;;;;5034303;28;19955;-88
2023/11/02 04:46:26;;;;;;;;;;;10.20;99.90;;;;;;5034370;28;19981;-86
2023/11/02 04:48:51;;;;;;;;;;;10.20;99.90;;;;;;5016729;28;19916;-86
2023/11/02 04:51:17;;;;;;;;;;;10.20;99.90;;;;;;5020636;28;19909;-84
2023/11/02 04:53:43;;;;;;;;;;;10.20;99.90;;;;;;5037075;28;19912;-86
2023/11/02 04:56:09;;;;;;;;;;;10.20;99.90;;;;;;5051131;28;19916;-86
2023/11/02 04:58:34;;;;;;;;;;;10.20;99.90;;;;;;5018222;28;19905;-87
2023/11/02 05:01:00;;;;;;;;;;;10.20;99.90;;;;;;5050263;28;20342;-86
2023/11/02 05:03:26;;;;;;;;;;;10.20;99.90;;;;;;5046984;28;19967;-85
2023/11/02 05:05:51;;;;;;;;;;;10.20;99.90;;;;;;5016528;28;19998;-85
2023/11/02 05:08:26;;;;;;;;;;;10.20;99.90;;;;;;5026473;28;19931;-88
2023/11/02 05:10:52;;;;;;;;;;;10.20;99.90;;;;;;5042724;28;19959;-86
2023/11/02 05:13:18;;;;;;;;;;;10.10;99.90;;;;;;5034985;28;19912;-86
2023/11/02 05:15:43;;;;;;;;;;;10.10;99.90;;;;;;5034319;28;19944;-87
2023/11/02 05:18:09;;;;;;;;;;;10.10;99.90;;;;;;5034393;28;19905;-87
2023/11/02 05:20:35;;;;;;;;;;;10.20;99.90;;;;;;5026368;28;19909;-86
2023/11/02 05:23:00;;;;;;;;;;;10.20;99.90;;;;;;5024699;28;19963;-89
2023/11/02 05:25:26;;;;;;;;;;;10.20;99.90;;;;;;5013812;28;19917;-88
2023/11/02 05:27:52;;;;;;;;;;;10.20;99.90;;;;;;5035460;28;19913;-86
2023/11/02 05:30:18;;;;;;;;;;;10.20;99.90;;;;;;5039373;28;19905;-86
2023/11/02 05:32:44;;;;;;;;;;;10.10;99.90;;;;;;5039880;28;19913;-85
2023/11/02 05:35:10;;;;;;;;;;;10.10;99.90;;;;;;5028245;28;19912;-84
2023/11/02 05:37:36;;;;;;;;;;;10.10;99.90;;;;;;5005807;28;19940;-85
2023/11/02 05:40:02;;;;;;;;;;;10.10;99.90;;;;;;5012255;28;19937;-87
2023/11/02 05:42:31;;;;;;;;;;;10.10;99.90;;;;;;5013704;28;19999;-87
2023/11/02 05:44:56;;;;;;;;;;;10.10;99.90;;;;;;4996863;28;20365;-86
2023/11/02 05:47:26;;;;;;;;;;;10.10;99.90;;;;;;5020348;28;19905;-88
2023/11/02 05:49:51;;;;;;;;;;;10.00;99.90;;;;;;5000810;28;20416;-88
2023/11/02 05:52:17;;;;;;;;;;;10.00;99.90;;;;;;5020148;28;19941;-86
2023/11/02 05:54:42;;;;;;;;;;;10.00;99.90;;;;;;5029258;28;19905;-88
2023/11/02 05:57:08;;;;;;;;;;;10.00;99.90;;;;;;5016874;28;19913;-88
2023/11/02 05:59:34;;;;;;;;;;;10.00;99.90;;;;;;4996719;28;19905;-87
2023/11/02 06:02:02;;;;;;;;;;;10.00;99.90;;;;;;5013882;28;19935;-87
2023/11/02 06:04:27;;;;;;;;;;;10.00;99.90;;;;;;5017466;28;20355;-88
2023/11/02 06:06:53;;;;;;;;;;;9.90;99.90;;;;;;5018350;28;19932;-85
2023/11/02 06:09:22;;;;;;;;;;;10.00;99.90;;;;;;5015570;28;19909;-87
2023/11/02 06:11:47;;;;;;;;;;;9.90;99.90;;;;;;5002083;28;19909;-86
2023/11/02 06:14:13;;;;;;;;;;;10.00;99.90;;;;;;5011942;28;20393;-87
2023/11/02 06:16:39;;;;;;;;;;;;;;;;;;4997618;28;20286;-87
2023/11/02 06:19:05;;;;;;;;;;;;;;;;;;5015151;28;19913;-86
2023/11/02 06:21:31;;;;;;;;;;;;;;;;;;5013521;28;19909;-86
2023/11/02 06:23:57;;;;;;;;;;;9.90;99.90;;;;;;5012936;28;20004;-85
2023/11/02 06:26:22;;;;;;;;;;;9.90;99.90;;;;;;4996551;28;19912;-86
2023/11/02 06:28:48;;;;;;;;;;;9.90;99.90;;;;;;4996893;28;19912;-87
2023/11/02 06:31:14;;;;;;;;;;;9.90;99.90;;;;;;5022476;28;19951;-86
2023/11/02 06:33:41;;;;;;;;;;;9.80;99.90;;;;;;5004096;28;19906;-90
2023/11/02 06:36:07;;;;;;;;;;;9.80;99.90;;;;;;5016265;28;19972;-86
2023/11/02 06:38:33;;;;;;;;;;;9.80;99.90;;;;;;5028102;28;20278;-87
2023/11/02 06:40:59;;;;;;;;;;;;;;;;;;5017705;28;19960;-86
2023/11/02 06:43:26;;;;;;;;;;;9.80;99.90;;;;;;5014307;28;19920;-87
2023/11/02 06:45:52;;;;;;;;;;;9.80;99.90;;;;;;5013664;28;19912;-89
2023/11/02 06:48:18;;;;;;;;;;;9.80;99.90;;;;;;5015421;28;19906;-89
2023/11/02 06:50:46;;;;;;;;;;;9.80;99.90;;;;;;5016273;28;20248;-89
2023/11/02 06:53:12;;;;;;;;;;;9.80;99.90;;;;;;5016067;28;19916;-87
2023/11/02 06:55:39;;;;;;;;;;;9.70;99.90;;;;;;5017274;28;19893;-88
2023/11/02 06:58:05;;;;;;;;;;;9.70;99.90;;;;;;5013322;28;19905;-86
2023/11/02 07:00:31;;;;;;;;;;;9.70;99.90;;;;;;5016993;28;19979;-89
2023/11/02 07:02:59;;;;;;;;;;;9.70;99.90;;;;;;5000575;28;19925;-89
2023/11/02 07:05:25;;;;;;;;;;;9.70;99.90;;;;;;5018897;28;19912;-90
2023/11/02 07:07:55;;;;;;;;;;;9.70;99.90;;;;;;5021696;28;19928;-88
2023/11/02 07:10:20;;;;;;;;;;;9.70;99.90;;;;;;5019929;28;19913;-85
2023/11/02 07:12:46;;;;;;;;;;;9.60;99.90;;;;;;5007431;28;19917;-88
2023/11/02 07:15:13;;;;;;;;;;;9.70;99.90;;;;;;5000449;28;19920;-91
2023/11/02 07:17:39;;;;;;;;;;;9.60;99.90;;;;;;5021479;28;19905;-87
2023/11/02 07:20:05;;;;;;;;;;;9.70;99.90;;;;;;5009639;28;19961;-85
2023/11/02 07:22:30;;;;;;;;;;;9.70;99.90;;;;;;5016411;28;19917;-84
2023/11/02 07:24:56;;;;;;;;;;;9.70;99.90;;;;;;4998475;28;20212;-87
2023/11/02 07:27:23;;;;;;;;;;;9.70;99.90;;;;;;5017343;28;19913;-91
2023/11/02 07:29:49;;;;;;;;;;;9.70;99.90;;;;;;4999547;28;20358;-88
2023/11/02 07:32:17;;;;;;;;;;;9.70;99.90;;;;;;5023118;28;19951;-90
2023/11/02 07:34:42;;;;;;;;;;;9.70;99.90;;;;;;5024522;28;19912;-90
2023/11/02 07:37:08;;;;;;;;;;;9.70;99.90;;;;;;5010113;28;19905;-90
2023/11/02 07:39:40;;;;;;;;;;;9.70;99.90;;;;;;5045540;28;19893;-91
2023/11/02 07:42:05;;;;;;;;;;;9.70;99.90;;;;;;5010991;28;19913;-91
2023/11/02 07:44:31;;;;;;;;;;;9.60;99.90;;;;;;5024109;28;20400;-87
2023/11/02 07:46:57;;;;;;;;;;;9.60;99.90;;;;;;4998654;28;19909;-88
2023/11/02 07:49:23;;;;;;;;;;;9.50;99.90;;;;;;5016548;28;20001;-87
2023/11/02 07:51:48;;;;;;;;;;;9.40;99.90;;;;;;5023898;28;19906;-91
2023/11/02 07:54:14;;;;;;;;;;;;;;;;;;5021431;28;19997;-91
2023/11/02 07:56:41;;;;;;;;;;;9.40;99.90;;;;;;5025622;28;19905;-91
2023/11/02 07:59:07;;;;;;;;;;;9.30;99.90;;;;;;5006686;28;20407;-92
2023/11/02 08:01:33;;;;;;;;;;;9.30;99.90;;;;;;5031214;28;20358;-88
2023/11/02 08:03:59;;;;;;;;;;;9.30;99.90;;;;;;5015187;28;19916;-87
2023/11/02 08:06:24;;;;;;;;;;;9.20;99.90;;;;;;5015111;28;19906;-85
2023/11/02 08:08:51;;;;;;;;;;;9.20;99.90;;;;;;5016713;28;20362;-85
2023/11/02 08:11:19;;;;;;;;;;;9.10;99.90;;;;;;5011269;28;19936;-90
2023/11/02 08:13:46;;;;;;;;;;;9.10;99.90;;;;;;5009856;28;19912;-91
2023/11/02 08:16:12;;;;;;;;;;;9.10;99.90;;;;;;5017501;28;20003;-86
2023/11/02 08:18:38;;;;;;;;;;;9.00;99.90;;;;;;5035812;28;19932;-87
2023/11/02 08:21:07;;;;;;;;;;;9.10;99.90;;;;;;5010698;28;19921;-90
2023/11/02 08:23:33;;;;;;;;;;;9.10;99.90;;;;;;5013654;28;20278;-89
2023/11/02 08:25:59;;;;;;;;;;;9.10;99.90;;;;;;5026351;28;20278;-87
2023/11/02 08:28:25;;;;;;;;;;;9.00;99.90;;;;;;5046756;28;20000;-90
2023/11/02 08:30:50;;;;;;;;;;;8.80;99.90;;;;;;5017431;28;19905;-86
2023/11/02 08:33:16;;;;;;;;;;;8.60;99.90;;;;;;5034762;28;19909;-87
2023/11/02 08:35:42;;;;;;;;;;;8.60;99.90;;;;;;5035945;28;19914;-90
2023/11/02 08:38:07;;;;;;;;;;;8.50;99.90;;;;;;5006238;28;19905;-89
2023/11/02 08:40:34;;;;;;;;;;;8.40;99.90;;;;;;5026468;28;20008;-86
2023/11/02 08:43:01;;;;;;;;;;;8.30;99.90;;;;;;5042215;28;19913;-89
2023/11/02 08:45:35;;;;;;;;;;;8.30;99.90;;;;;;5036089;28;19918;-90
2023/11/02 08:48:01;;;;;;;;;;;8.20;99.90;;;;;;5028458;28;19944;-88
2023/11/02 08:50:27;;;;;;;;;;;8.10;99.90;;;;;;5024017;28;19979;-88
2023/11/02 08:52:53;;;;;;;;;;;7.90;99.90;;;;;;5023953;28;19906;-86
2023/11/02 08:55:19;;;;;;;;;;;7.80;99.90;;;;;;5015808;28;19905;-87
2023/11/02 08:57:45;;;;;;;;;;;7.70;99.90;;;;;;5003160;28;19962;-86
2023/11/02 09:00:11;;;;;;;;;;;7.60;99.90;;;;;;4997228;28;19905;-87
2023/11/02 09:02:36;;;;;;;;;;;7.60;99.90;;;;;;5014470;28;20271;-86
2023/11/02 09:05:03;;;;;;;;;;;7.50;99.90;;;;;;4997747;28;19905;-90
2023/11/02 09:07:30;;;;;;;;;;;7.50;99.90;;;;;;5008268;28;20011;-88
2023/11/02 09:09:56;;;;;;;;;;;7.40;99.90;;;;;;5036566;28;20031;-89
2023/11/02 09:12:22;;;;;;;;;;;7.40;99.90;;;;;;5019726;28;19948;-88
2023/11/02 09:14:47;;;;;;;;;;;7.40;99.90;;;;;;4996347;28;20011;-87
2023/11/02 09:17:13;;;;;;;;;;;7.40;99.90;;;;;;5017170;28;19915;-85
2023/11/02 09:19:39;;;;;;;;;;;7.40;99.90;;;;;;5022717;28;20362;-89
2023/11/02 09:22:05;;;;;;;;;;;7.40;99.90;;;;;;5000817;28;20390;-88
2023/11/02 09:24:31;;;;;;;;;;;7.40;99.90;;;;;;5013482;28;20474;-86
2023/11/02 09:26:57;;;;;;;;;;;7.30;99.90;;;;;;4996499;28;20007;-90
2023/11/02 09:29:23;;;;;;;;;;;7.30;99.90;;;;;;5022879;28;19906;-88
2023/11/02 09:31:48;;;;;;;;;;;7.20;99.90;;;;;;4996510;28;19905;-88
2023/11/02 09:34:15;;;;;;;;;;;7.20;99.90;;;;;;5013245;28;19905;-86
2023/11/02 09:36:41;;;;;;;;;;;7.20;99.90;;;;;;4997150;28;20453;-87
2023/11/02 09:39:07;;;;;;;;;;;7.20;99.90;;;;;;5004080;28;19956;-88
2023/11/02 09:41:35;;;;;;;;;;;7.20;99.90;;;;;;4999019;28;20279;-89
2023/11/02 09:44:01;;;;;;;;;;;7.20;99.90;;;;;;4997409;28;19968;-89
2023/11/02 09:46:26;;;;;;;;;;;7.20;99.90;;;;;;5013646;28;20004;-87
2023/11/02 09:48:52;;;;;;;;;;;7.10;99.90;;;;;;5014806;28;19947;-91
2023/11/02 09:51:18;;;;;;;;;;;7.10;99.90;;;;;;5017092;28;19972;-91
2023/11/02 09:53:44;;;;;;;;;;;7.10;99.90;;;;;;5023022;28;20311;-89
2023/11/02 09:56:11;;;;;;;;;;;7.00;99.90;;;;;;5016525;28;19996;-88
2023/11/02 09:58:36;;;;;;;;;;;7.00;99.90;;;;;;5013291;28;19948;-87
2023/11/02 10:01:02;;;;;;;;;;;7.00;99.90;;;;;;4998971;28;19967;-86
2023/11/02 10:03:28;;;;;;;;;;;7.00;99.90;;;;;;5010089;28;19960;-89
2023/11/02 10:05:55;;;;;;;;;;;6.90;99.90;;;;;;4995653;28;20390;-86
2023/11/02 10:08:20;;;;;;;;;;;6.90;99.90;;;;;;4995791;28;20004;-88
2023/11/02 10:10:46;;;;;;;;;;;6.90;99.90;;;;;;5003156;28;20455;-84
2023/11/02 10:13:12;;;;;;;;;;;6.90;99.90;;;;;;5015674;28;19931;-87
2023/11/02 10:15:37;;;;;;;;;;;6.90;99.90;;;;;;5026522;28;19961;-87
2023/11/02 10:18:11;;;;;;;;;;;6.90;99.90;;;;;;5018061;28;19897;-88
2023/11/02 10:20:37;;;;;;;;;;;6.90;99.90;;;;;;5049771;28;20405;-87
2023/11/02 10:23:05;;;;;;;;;;;6.90;99.90;;;;;;5025991;28;19917;-86
2023/11/02 10:25:31;;;;;;;;;;;6.90;99.90;;;;;;4997873;28;19905;-84
2023/11/02 10:27:58;;;;;;;;;;;6.90;99.90;;;;;;5019528;28;20282;-85
2023/11/02 10:30:25;;;;;;;;;;;7.00;99.90;;;;;;5017109;28;19904;-86
2023/11/02 10:32:50;;;;;;;;;;;6.80;99.90;;;;;;5027378;28;19914;-86
2023/11/02 10:35:16;;;;;;;;;;;6.80;99.90;;;;;;4998554;28;19991;-88
2023/11/02 10:37:43;;;;;;;;;;;6.70;99.90;;;;;;5024157;28;19953;-89
2023/11/02 10:40:10;;;;;;;;;;;6.80;99.90;;;;;;5007989;28;20275;-84
2023/11/02 10:42:38;;;;;;;;;;;6.80;99.90;;;;;;5016462;28;19991;-85
2023/11/02 10:45:06;;;;;;;;;;;6.80;99.90;;;;;;5000439;28;19928;-86
2023/11/02 10:47:34;;;;;;;;;;;6.70;99.90;;;;;;5010211;28;19909;-84
2023/11/02 10:49:59;;;;;;;;;;;6.70;99.90;;;;;;5017358;28;20287;-85
2023/11/02 10:52:33;;;;;;;;;;;6.70;99.90;;;;;;5019040;28;20064;-86
2023/11/02 10:55:05;;;;;;;;;;;6.70;99.90;;;;;;5001201;28;19944;-85
2023/11/02 10:57:31;;;;;;;;;;;6.70;99.90;;;;;;5022367;28;19905;-87
2023/11/02 10:59:59;;;;;;;;;;;6.70;99.90;;;;;;5009352;28;19909;-87
2023/11/02 11:02:25;;;;;;;;;;;6.60;99.90;;;;;;5016530;28;20303;-87
2023/11/02 11:04:51;;;;;;;;;;;6.50;99.90;;;;;;4999579;28;19952;-87
2023/11/02 11:07:18;;;;;;;;;;;6.50;99.90;;;;;;5032586;28;20027;-85
2023/11/02 11:09:45;;;;;;;;;;;6.50;99.90;;;;;;5037797;28;19905;-83
2023/11/02 11:12:14;;;;;;;;;;;6.40;99.90;;;;;;5018803;28;19912;-87
2023/11/02 11:14:41;;;;;;;;;;;6.40;99.90;;;;;;5036564;28;19917;-87
2023/11/02 11:17:07;;;;;;;;;;;6.40;99.90;;;;;;5036989;28;19916;-87
2023/11/02 11:19:33;;;;;;;;;;;6.30;99.90;;;;;;5037263;28;19905;-90
2023/11/02 11:22:01;;;;;;;;;;;6.30;99.90;;;;;;5018566;28;19909;-86
2023/11/02 11:24:30;;;;;;;;;;;6.40;99.90;;;;;;5028434;28;20389;-84
2023/11/02 11:26:56;;;;;;;;;;;6.40;99.90;;;;;;4997954;28;19913;-83
2023/11/02 11:29:34;;;;;;;;;;;6.40;99.90;;;;;;5015878;28;20277;-86
2023/11/02 11:32:00;;;;;;;;;;;6.40;99.90;;;;;;4997592;28;20387;-85
2023/11/02 11:34:26;;;;;;;;;;;6.30;99.90;;;;;;4997793;28;19914;-86
2023/11/02 11:37:11;;;;;;;;;;;6.40;99.90;;;;;;5015548;28;20367;-84
2023/11/02 11:39:38;;;;;;;;;;;6.50;99.90;;;;;;4997433;28;19909;-86
2023/11/02 11:42:04;;;;;;;;;;;6.50;99.90;;;;;;5015247;28;20325;-85
2023/11/02 11:44:30;;;;;;;;;;;6.40;99.90;;;;;;4998308;28;19939;-84
2023/11/02 11:46:56;;;;;;;;;;;6.40;99.90;;;;;;5015018;28;19913;-82
2023/11/02 11:49:44;;;;;;;;;;;6.30;99.90;;;;;;5015325;28;19921;-83
2023/11/02 11:52:23;;;;;;;;;;;6.30;99.90;;;;;;5024138;28;19993;-83
2023/11/02 11:54:49;;;;;;;;;;;6.30;99.90;;;;;;5022301;28;19905;-89
2023/11/02 11:57:52;;;;;;;;;;;6.40;99.90;;;;;;5004654;28;19909;-89
2023/11/02 12:00:17;;;;;;;;;;;6.40;99.90;;;;;;4999666;28;19916;-88
2023/11/02 12:02:44;;;;;;;;;;;6.40;99.90;;;;;;4997208;28;20298;-84
2023/11/02 12:05:10;;;;;;;;;;;6.40;99.90;;;;;;5015642;28;19909;-86
2023/11/02 12:07:38;;;;;;;;;;;6.50;99.90;;;;;;5025573;28;19915;-86
2023/11/02 12:10:05;;;;;;;;;;;6.50;99.90;;;;;;5031657;28;19995;-87
2023/11/02 12:12:31;;;;;;;;;;;6.60;99.90;;;;;;5035361;28;19905;-85
2023/11/02 12:15:21;;;;;;;;;;;6.60;99.90;;;;;;5015539;28;20536;-86
2023/11/02 12:17:50;;;;;;;;;;;6.60;99.90;;;;;;5008498;28;20512;-85
2023/11/02 12:20:32;;;;;;;;;;;6.50;99.90;;;;;;5013412;28;19909;-85
2023/11/02 12:23:00;;;;;;;;;;;6.40;99.90;;;;;;4999758;28;20397;-89
2023/11/02 12:25:26;;;;;;;;;;;6.30;99.90;;;;;;5014774;28;19920;-86
2023/11/02 12:27:55;;;;;;;;;;;6.30;99.90;;;;;;4998121;28;20247;-88
2023/11/02 12:30:21;;;;;;;;;;;6.30;99.90;;;;;;5016919;28;19909;-87
2023/11/02 12:32:47;;;;;;;;;;;6.30;99.90;;;;;;4997188;28;19909;-87
2023/11/02 12:35:13;;;;;;;;;;;6.30;99.90;;;;;;5017082;28;19906;-84
2023/11/02 12:37:39;;;;;;;;;;;6.30;99.90;;;;;;4996616;28;19913;-84
2023/11/02 12:40:07;;;;;;;;;;;6.20;99.90;;;;;;5015456;28;19905;-86
2023/11/02 12:42:36;;;;;;;;;;;6.20;99.90;;;;;;5013866;28;19917;-84
2023/11/02 12:45:02;;;;;;;;;;;6.20;99.90;;;;;;5013953;28;19913;-85
2023/11/02 12:47:39;;;;;;;;;;;6.10;99.90;;;;;;5016915;28;19937;-85
2023/11/02 12:50:05;;;;;;;;;;;6.10;99.90;;;;;;4999483;28;19905;-85
2023/11/02 12:52:41;;;;;;;;;;;6.10;99.90;;;;;;5018828;28;19910;-87
2023/11/02 12:55:06;;;;;;;;;;;6.20;99.90;;;;;;5019405;28;19909;-87
2023/11/02 12:57:39;;;;;;;;;;;6.10;99.90;;;;;;4999659;28;19920;-86
2023/11/02 13:00:12;;;;;;;;;;;6.20;99.90;;;;;;5023950;28;19929;-86
2023/11/02 13:02:37;;;;;;;;;;;6.10;99.90;;;;;;4996354;28;19923;-87
2023/11/02 13:05:13;;;;;;;;;;;6.10;99.90;;;;;;5013698;28;20000;-85
2023/11/02 13:07:40;;;;;;;;;;;6.10;99.90;;;;;;5023447;28;19905;-84
2023/11/02 13:10:09;;;;;;;;;;;6.20;99.90;;;;;;5025609;28;19913;-86
2023/11/02 13:12:35;;;;;;;;;;;6.10;99.90;;;;;;5039307;28;19927;-89
2023/11/02 13:15:05;;;;;;;;;;;6.10;99.90;;;;;;5044707;28;19917;-85
2023/11/02 13:17:31;;;;;;;;;;;6.10;99.90;;;;;;5030968;28;19908;-85
2023/11/02 13:19:57;;;;;;;;;;;6.10;99.90;;;;;;5062157;28;19999;-86
2023/11/02 13:22:22;;;;;;;;;;;6.20;99.90;;;;;;5039601;28;19924;-89
2023/11/02 13:24:48;;;;;;;;;;;6.20;99.90;;;;;;5034679;28;19905;-89
2023/11/02 13:27:14;;;;;;;;;;;6.20;99.90;;;;;;5043090;28;19894;-89
2023/11/02 13:29:41;;;;;;;;;;;6.20;99.90;;;;;;5032222;28;19949;-91
2023/11/02 13:32:06;;;;;;;;;;;6.20;99.90;;;;;;5010345;28;20279;-91
2023/11/02 13:34:32;;;;;;;;;;;6.20;99.90;;;;;;5003702;28;19920;-86
2023/11/02 13:36:59;;;;;;;;;;;6.20;99.90;;;;;;5004062;28;19910;-91
2023/11/02 13:39:24;;;;;;;;;;;6.20;99.90;;;;;;5007607;28;19912;-90
2023/11/02 13:41:50;;;;;;;;;;;6.10;99.90;;;;;;5030097;28;19960;-88
2023/11/02 13:44:16;;;;;;;;;;;6.00;99.90;;;;;;5002649;28;19916;-92
2023/11/02 13:46:42;;;;;;;;;;;6.00;99.90;;;;;;5000989;28;19987;-90
2023/11/02 13:49:08;;;;;;;;;;;6.00;99.90;;;;;;5018865;28;19909;-83
2023/11/02 13:51:34;;;;;;;;;;;6.10;99.90;;;;;;5012930;28;19912;-81
2023/11/02 13:53:59;;;;;;;;;;;6.10;99.90;;;;;;5015146;28;19905;-83
2023/11/02 13:56:25;;;;;;;;;;;6.10;99.90;;;;;;5013478;28;19909;-84
2023/11/02 13:58:52;;;;;;;;;;;6.10;99.90;;;;;;5013655;28;19992;-81
2023/11/02 14:01:17;;;;;;;;;;;6.10;99.90;;;;;;5013553;28;20001;-83
2023/11/02 14:03:43;;;;;;;;;;;6.10;99.90;;;;;;5017669;28;20441;-82
2023/11/02 14:06:09;;;;;;;;;;;6.10;99.90;;;;;;5015527;28;19905;-82
2023/11/02 14:08:35;;;;;;;;;;;6.10;99.90;;;;;;5048660;28;19905;-83
2023/11/02 14:11:05;;;;;;;;;;;6.00;99.90;;;;;;5019821;28;19944;-81
2023/11/02 14:13:31;;;;;;;;;;;6.00;99.90;;;;;;5036306;28;19913;-82
2023/11/02 14:15:57;;;;;;;;;;;6.00;99.90;;;;;;5036230;28;19921;-82
2023/11/02 14:18:23;;;;;;;;;;;5.90;99.90;;;;;;5036098;28;20267;-83
2023/11/02 14:20:49;;;;;;;;;;;5.90;99.90;;;;;;5026194;28;19962;-82
2023/11/02 14:23:17;;;;;;;;;;;5.90;99.90;;;;;;5023965;28;19921;-81
2023/11/02 14:25:43;;;;;;;;;;;5.90;99.90;;;;;;4998395;28;19913;-81
2023/11/02 14:28:09;;;;;;;;;;;5.90;99.90;;;;;;5016394;28;19928;-82
2023/11/02 14:30:35;;;;;;;;;;;5.80;99.90;;;;;;4998508;28;19905;-87